Time;durP1;ratioP1;P1;durP2;ratioP2;P2;SDS_P1;SDS_P2;PMS_P1;PMS_P2;Temp;Humidity;BMP_temperature;BMP_pressure;BME280_temperature;BME280_humidity;BME280_pressure;Samples;Min_cycle;Max_cycle;Signal;HPM_P1;HPM_P2
2023/10/05 00:01:20;;;;;;;14.70;8.90;;;18.20;99.80;;;18.59;62.65;95764.31;5003318;28;20562;-60
2023/10/05 00:03:51;;;;;;;18.30;8.43;;;18.20;99.50;;;18.57;63.37;95768.94;5001187;28;21020;-60
2023/10/05 00:06:23;;;;;;;15.23;8.00;;;18.20;99.70;;;18.54;62.96;95766.63;4998352;28;20517;-60
2023/10/05 00:08:52;;;;;;;27.40;8.83;;;18.10;99.50;;;18.50;64.04;95769.78;5008010;28;20529;-61
2023/10/05 00:11:24;;;;;;;12.63;9.10;;;18.10;99.90;;;18.47;63.13;95765.66;5000448;28;20490;-61
2023/10/05 00:13:52;;;;;;;11.60;7.60;;;18.10;99.90;;;18.42;63.90;95762.66;5001910;28;20567;-62
2023/10/05 00:16:21;;;;;;;12.17;8.33;;;18.00;99.90;;;18.42;63.90;95765.31;4997553;28;20849;-59
2023/10/05 00:18:51;;;;;;;17.83;9.00;;;18.00;99.90;;;18.39;63.40;95765.66;5001105;28;20493;-59
2023/10/05 00:21:19;;;;;;;24.83;9.30;;;18.00;99.90;;;18.37;63.29;95764.97;5002340;28;20480;-59
2023/10/05 00:23:50;;;;;;;20.20;9.30;;;18.00;99.90;;;18.36;64.77;95766.00;4999941;28;20458;-59
2023/10/05 00:26:20;;;;;;;17.13;8.27;;;17.90;99.90;;;18.34;63.83;95757.31;4997688;28;20553;-59
2023/10/05 00:29:04;;;;;;;13.30;7.97;;;17.90;99.90;;;18.32;64.14;95762.81;5001976;28;20815;-61
2023/10/05 00:31:33;;;;;;;10.93;7.93;;;17.90;99.90;;;18.33;63.84;95761.81;5006726;28;20469;-59
2023/10/05 00:34:02;;;;;;;24.70;10.67;;;17.90;99.90;;;18.34;64.00;95759.97;5007304;28;20547;-59
2023/10/05 00:36:33;;;;;;;13.30;8.87;;;17.90;99.90;;;18.33;63.26;95751.16;5001911;28;20829;-59
2023/10/05 00:39:02;;;;;;;12.90;7.33;;;17.90;99.90;;;18.33;63.86;95751.16;5002144;28;20505;-60
2023/10/05 00:41:29;;;;;;;15.30;8.30;;;17.90;99.90;;;18.32;63.83;95757.47;5001163;28;20507;-60
2023/10/05 00:43:56;;;;;;;11.53;8.10;;;17.90;99.90;;;18.31;63.46;95758.50;5001808;28;20481;-60
2023/10/05 00:46:24;;;;;;;16.40;10.20;;;17.90;99.90;;;18.32;63.62;95756.66;5004305;28;20481;-59
2023/10/05 00:49:00;;;;;;;13.83;7.67;;;17.90;99.90;;;18.30;64.00;95756.81;5000290;28;20459;-58
2023/10/05 00:51:31;;;;;;;15.00;8.40;;;17.90;99.90;;;18.30;63.62;95761.31;5007633;28;20478;-58
2023/10/05 00:54:03;;;;;;;12.40;7.90;;;17.90;99.90;;;18.32;64.06;95759.31;5000911;28;21047;-59
2023/10/05 00:56:34;;;;;;;21.97;8.97;;;17.90;99.90;;;18.32;63.86;95761.97;5003583;28;20468;-59
2023/10/05 00:59:06;;;;;;;18.00;9.00;;;17.90;99.90;;;18.33;64.26;95761.00;5002106;28;20474;-60
2023/10/05 01:01:54;;;;;;;10.83;8.10;;;17.90;99.90;;;18.33;64.26;95755.66;5002724;28;20487;-59
2023/10/05 01:04:28;;;;;;;15.63;8.40;;;17.90;99.90;;;18.34;63.55;95762.63;4997524;28;20447;-59
2023/10/05 01:07:06;;;;;;;25.63;8.47;;;17.90;99.90;;;18.35;64.28;95756.31;4995804;28;20474;-59
2023/10/05 01:09:55;;;;;;;16.43;7.60;;;17.90;99.90;;;18.34;63.62;95752.84;4998522;28;20538;-60
2023/10/05 01:12:35;;;;;;;11.70;8.13;;;17.90;99.90;;;18.34;64.11;95749.31;5002359;28;20477;-58
2023/10/05 01:15:06;;;;;;;11.93;7.13;;;17.90;99.90;;;18.35;63.66;95751.81;5002808;28;20532;-59
2023/10/05 01:17:35;;;;;;;17.17;9.57;;;17.90;99.90;;;18.35;63.62;95751.81;5004367;28;20482;-60
2023/10/05 01:20:11;;;;;;;19.57;8.70;;;17.90;99.90;;;18.35;63.93;95737.69;4999459;28;20493;-59
2023/10/05 01:22:40;;;;;;;15.20;7.43;;;17.90;99.90;;;18.35;63.44;95740.34;5004886;28;20933;-60
2023/10/05 01:25:13;;;;;;;13.93;7.27;;;17.90;99.90;;;18.35;63.42;95737.69;4998630;28;20454;-59
2023/10/05 01:27:41;;;;;;;11.27;7.10;;;17.90;99.90;;;18.35;63.96;95738.50;5003963;28;20445;-63
2023/10/05 01:30:12;;;;;;;14.90;7.70;;;17.90;99.90;;;18.34;63.73;95730.69;4999479;28;20458;-61
2023/10/05 01:32:41;;;;;;;11.90;7.00;;;17.90;99.90;;;18.33;63.91;95732.50;4998713;28;20875;-60
2023/10/05 01:35:12;;;;;;;11.80;7.27;;;17.90;99.90;;;18.32;63.81;95728.19;4998724;28;20459;-60
2023/10/05 01:37:40;;;;;;;14.30;7.43;;;17.90;99.90;;;18.31;63.46;95728.34;5005127;28;20457;-59
2023/10/05 01:40:19;;;;;;;20.90;7.33;;;17.90;99.90;;;18.31;63.37;95739.00;5001181;28;20580;-59
2023/10/05 01:42:47;;;;;;;11.83;7.13;;;17.90;99.90;;;18.30;63.21;95737.34;5004205;28;20453;-59
2023/10/05 01:45:16;;;;;;;14.10;7.90;;;17.90;99.90;;;18.29;63.87;95739.16;5000579;28;20453;-59
2023/10/05 01:47:45;;;;;;;13.80;6.70;;;17.90;99.90;;;18.28;63.30;95733.00;4997126;28;20462;-58
2023/10/05 01:50:18;;;;;;;12.97;6.67;;;17.80;99.90;;;18.27;63.53;95735.84;5000676;28;20540;-59
2023/10/05 01:52:51;;;;;;;17.63;7.57;;;17.90;99.90;;;18.23;63.34;95722.03;5001195;28;20799;-60
2023/10/05 01:55:20;;;;;;;16.07;7.57;;;17.90;99.90;;;18.19;63.96;95734.00;4999761;28;20441;-59
2023/10/05 01:57:48;;;;;;;17.43;7.30;;;17.80;99.90;;;18.15;64.00;95734.50;5000500;28;20543;-60
2023/10/05 02:00:20;;;;;;;12.70;7.07;;;17.80;99.90;;;18.10;63.88;95733.16;5000637;28;20683;-59
2023/10/05 02:02:48;;;;;;;12.33;6.63;;;17.70;99.90;;;18.08;64.16;95731.69;4999028;28;20450;-60
2023/10/05 02:05:18;;;;;;;13.70;7.77;;;17.70;99.90;;;18.07;63.92;95732.66;5003653;28;20556;-59
2023/10/05 02:07:45;;;;;;;13.10;6.83;;;17.70;99.90;;;18.05;64.04;95738.16;5001289;28;20529;-61
2023/10/05 02:10:13;;;;;;;10.97;6.23;;;17.70;99.90;;;18.06;63.77;95733.66;4996877;28;20847;-61
2023/10/05 02:12:42;;;;;;;9.53;6.00;;;17.70;99.90;;;18.07;64.01;95735.34;5002566;28;20502;-61
2023/10/05 02:15:13;;;;;;;13.60;6.97;;;17.70;99.90;;;18.07;64.06;95738.00;5002633;28;20458;-60
2023/10/05 02:17:45;;;;;;;18.13;6.70;;;17.60;99.90;;;18.07;63.75;95743.31;5002526;28;21284;-60
2023/10/05 02:20:25;;;;;;;13.77;7.30;;;17.70;99.90;;;18.07;63.93;95741.47;5004198;28;20482;-59
2023/10/05 02:22:54;;;;;;;13.43;6.60;;;17.70;99.90;;;18.07;63.42;95746.81;5003515;28;20481;-58
2023/10/05 02:25:25;;;;;;;13.20;6.90;;;17.70;99.90;;;18.09;63.73;95747.50;5004752;28;20541;-60
2023/10/05 02:27:55;;;;;;;11.30;6.80;;;17.70;99.90;;;18.08;63.31;95742.34;5001302;28;20450;-59
2023/10/05 02:30:27;;;;;;;13.80;7.20;;;17.70;99.90;;;18.07;63.89;95745.97;5006080;28;20454;-58
2023/10/05 02:32:58;;;;;;;14.63;7.43;;;17.70;99.90;;;18.07;63.19;95743.31;4998749;28;20450;-59
2023/10/05 02:35:30;;;;;;;9.73;6.43;;;17.70;99.90;;;18.06;63.75;95746.97;5001668;28;20458;-60
2023/10/05 02:37:59;;;;;;;12.63;7.53;;;17.70;99.90;;;18.04;64.32;95760.44;5006302;28;20518;-58
2023/10/05 02:40:34;;;;;;;11.63;6.50;;;17.70;99.90;;;18.01;63.52;95752.78;5005663;28;20493;-58
2023/10/05 02:43:07;;;;;;;8.30;6.90;;;17.60;99.90;;;17.98;63.86;95746.97;5002073;28;20743;-59
2023/10/05 02:45:36;;;;;;;9.63;5.73;;;17.60;99.90;;;17.96;63.91;95749.78;5000132;28;20478;-60
2023/10/05 02:48:05;;;;;;;16.43;7.67;;;17.60;99.90;;;17.92;63.71;95746.63;5002165;28;20772;-60
2023/10/05 02:50:37;;;;;;;10.43;7.10;;;17.50;99.90;;;17.87;63.80;95754.22;5000701;28;20954;-60
2023/10/05 02:53:06;;;;;;;9.40;7.97;;;17.50;99.90;;;17.85;64.01;95753.56;5003127;28;20453;-59
2023/10/05 02:55:36;;;;;;;17.13;6.43;;;17.50;99.90;;;17.83;64.33;95752.06;5000867;28;20569;-60
2023/10/05 02:58:05;;;;;;;11.30;6.10;;;17.40;99.90;;;17.80;64.15;95760.38;5001806;28;20454;-60
2023/10/05 03:00:34;;;;;;;9.70;7.10;;;17.40;99.90;;;17.77;63.85;95758.88;5000618;28;20926;-58
2023/10/05 03:03:03;;;;;;;11.37;7.40;;;17.40;99.90;;;17.76;63.77;95759.03;5002197;28;20541;-59
2023/10/05 03:05:32;;;;;;;20.07;7.87;;;17.30;99.90;;;17.75;64.27;95747.53;5001644;28;20459;-59
2023/10/05 03:07:59;;;;;;;13.43;8.40;;;17.30;99.90;;;17.74;63.87;95761.88;5005355;28;20523;-61
2023/10/05 03:10:28;;;;;;;15.93;7.63;;;17.30;99.90;;;17.72;63.82;95762.03;5001691;28;21041;-59
2023/10/05 03:12:55;;;;;;;22.70;7.87;;;17.40;99.90;;;17.71;64.39;95756.88;5001889;28;20450;-60
2023/10/05 03:15:27;;;;;;;11.53;7.47;;;17.30;99.90;;;17.68;63.90;95763.34;4999268;28;20465;-60
2023/10/05 03:17:57;;;;;;;27.27;7.97;;;17.30;99.90;;;17.66;63.64;95759.16;5001965;28;20468;-58
2023/10/05 03:20:24;;;;;;;21.80;7.93;;;17.30;99.90;;;17.64;64.18;95761.16;5002062;28;20576;-59
2023/10/05 03:22:55;;;;;;;13.57;8.77;;;17.30;99.90;;;17.61;64.25;95756.97;4999493;28;20831;-60
2023/10/05 03:25:25;;;;;;;14.00;7.60;;;17.20;99.90;;;17.58;64.33;95756.47;5008755;28;21037;-59
2023/10/05 03:27:55;;;;;;;16.80;8.23;;;17.20;99.90;;;17.53;64.03;95757.78;5002731;28;20525;-60
2023/10/05 03:30:30;;;;;;;14.73;7.83;;;17.20;99.90;;;17.51;63.80;95765.09;5003190;28;20517;-60
2023/10/05 03:33:00;;;;;;;13.70;8.67;;;17.20;99.90;;;17.47;64.01;95766.41;5004621;28;20458;-59
2023/10/05 03:35:27;;;;;;;13.93;7.60;;;17.10;99.90;;;17.43;63.78;95765.09;5004427;28;20488;-60
2023/10/05 03:37:54;;;;;;;13.77;7.60;;;17.10;99.90;;;17.41;64.25;95761.72;5005456;28;20451;-60
2023/10/05 03:40:25;;;;;;;17.37;8.17;;;17.10;99.90;;;17.36;64.50;95759.56;5003651;28;21018;-60
2023/10/05 03:42:57;;;;;;;18.00;8.50;;;17.00;99.90;;;17.33;64.27;95759.06;5001116;28;20457;-63
2023/10/05 03:45:26;;;;;;;10.40;7.33;;;17.00;99.90;;;17.29;64.34;95765.66;5008296;28;20774;-59
2023/10/05 03:47:53;;;;;;;18.60;8.90;;;17.00;99.90;;;17.25;64.64;95761.69;5002158;28;20458;-59
2023/10/05 03:50:21;;;;;;;16.70;7.33;;;16.90;99.90;;;17.19;64.78;95766.63;4999572;28;20612;-59
2023/10/05 03:52:49;;;;;;;15.77;7.63;;;16.90;99.90;;;17.16;64.34;95761.63;5005702;28;20465;-60
2023/10/05 03:55:18;;;;;;;14.30;7.20;;;16.80;99.90;;;17.14;64.54;95765.44;5000472;28;21006;-59
2023/10/05 03:57:46;;;;;;;18.27;7.70;;;16.80;99.90;;;17.11;64.23;95765.75;5000766;28;20513;-60
2023/10/05 04:00:31;;;;;;;13.67;6.63;;;16.80;99.90;;;17.08;64.83;95764.25;5005354;28;20517;-59
2023/10/05 04:03:00;;;;;;;10.23;7.47;;;16.70;99.90;;;17.05;64.40;95766.41;5003232;28;20458;-60
2023/10/05 04:05:27;;;;;;;11.80;6.33;;;16.70;99.90;;;17.02;64.43;95767.53;4997446;28;20469;-59
2023/10/05 04:08:00;;;;;;;21.87;6.83;;;16.70;99.90;;;17.00;64.72;95769.53;5000861;28;20553;-59
2023/10/05 04:10:46;;;;;;;31.13;7.17;;;16.70;99.90;;;16.98;64.50;95771.53;4998636;28;20450;-62
2023/10/05 04:13:14;;;;;;;8.67;5.90;;;16.60;99.90;;;16.95;64.34;95770.00;5001751;28;20455;-62
2023/10/05 04:15:41;;;;;;;13.47;6.60;;;16.60;99.90;;;16.95;64.60;95782.47;5000183;28;20479;-61
2023/10/05 04:18:11;;;;;;;13.17;6.43;;;16.60;99.90;;;16.95;64.28;95771.84;4999102;28;20465;-61
2023/10/05 04:20:43;;;;;;;22.30;6.27;;;16.60;99.90;;;16.95;64.15;95771.84;4998278;28;20899;-61
2023/10/05 04:23:14;;;;;;;9.30;6.00;;;16.60;99.90;;;16.97;64.42;95775.16;4999852;28;20498;-62
2023/10/05 04:25:44;;;;;;;11.60;5.53;;;16.60;99.90;;;16.96;64.27;95768.16;5000493;28;21036;-61
2023/10/05 04:28:12;;;;;;;13.73;7.33;;;16.60;99.90;;;16.95;63.95;95783.28;4997220;28;20521;-63
2023/10/05 04:30:39;;;;;;;8.07;6.40;;;16.60;99.90;;;16.95;63.80;95777.16;5000616;28;20549;-61
2023/10/05 04:33:07;;;;;;;13.03;6.87;;;16.60;99.90;;;16.95;64.12;95787.78;4999531;28;20528;-61
2023/10/05 04:35:42;;;;;;;9.47;5.83;;;16.60;99.90;;;16.95;64.24;95780.63;5000239;28;21358;-62
2023/10/05 04:38:10;;;;;;;16.00;7.03;;;16.60;99.90;;;16.96;63.77;95786.75;4994615;28;20457;-59
2023/10/05 04:40:38;;;;;;;16.60;6.07;;;16.60;99.90;;;16.97;64.18;95796.41;4993576;28;20886;-61
2023/10/05 04:43:11;;;;;;;20.60;6.57;;;16.60;99.90;;;16.97;64.01;95791.91;5004528;28;20465;-60
2023/10/05 04:45:42;;;;;;;12.90;8.00;;;16.60;99.90;;;16.99;63.68;95794.44;4999839;28;21036;-61
2023/10/05 04:48:12;;;;;;;23.67;6.43;;;16.60;99.90;;;17.01;63.29;95797.78;5003238;28;20454;-60
2023/10/05 04:50:41;;;;;;;12.93;6.90;;;16.70;99.90;;;17.02;63.98;95808.25;5000029;28;20644;-66
2023/10/05 04:53:09;;;;;;;29.47;6.50;;;16.70;99.90;;;17.04;63.36;95800.13;5001262;28;21027;-61
2023/10/05 04:55:42;;;;;;;7.40;5.17;;;16.70;99.90;;;17.07;63.55;95807.78;5003732;28;20557;-62
2023/10/05 04:58:21;;;;;;;26.30;6.60;;;16.70;99.90;;;17.09;63.64;95808.44;5002162;28;20471;-61
2023/10/05 05:00:54;;;;;;;25.17;7.83;;;16.70;99.90;;;17.10;63.46;95810.13;5000403;28;21053;-61
2023/10/05 05:03:48;;;;;;;22.90;6.13;;;16.70;99.90;;;17.13;62.82;95811.63;5005225;28;20478;-62
2023/10/05 05:06:17;;;;;;;17.53;6.40;;;16.70;99.80;;;17.12;63.16;95805.47;5001987;28;20485;-61
2023/10/05 05:08:44;;;;;;;8.97;6.40;;;16.80;99.80;;;17.12;62.99;95816.13;5003450;28;20476;-61
2023/10/05 05:11:18;;;;;;;12.90;6.23;;;16.80;99.70;;;17.09;62.73;95811.09;4996468;28;20951;-60
2023/10/05 05:13:46;;;;;;;17.40;7.67;;;16.70;99.70;;;17.07;62.73;95812.25;4999038;28;20453;-61
2023/10/05 05:16:14;;;;;;;17.57;8.10;;;16.70;99.60;;;17.04;63.04;95813.41;4996774;28;20536;-63
2023/10/05 05:18:42;;;;;;;16.80;7.37;;;16.70;99.70;;;17.04;63.01;95818.72;5000017;28;21202;-59
2023/10/05 05:21:11;;;;;;;10.90;6.33;;;16.70;99.70;;;17.03;62.87;95820.53;4997318;28;20494;-59
2023/10/05 05:23:41;;;;;;;45.50;9.70;;;16.70;99.80;;;17.06;63.05;95821.22;5001768;28;20467;-60
2023/10/05 05:26:11;;;;;;;17.63;7.43;;;16.70;99.80;;;17.07;62.86;95825.53;5004986;28;20489;-61
2023/10/05 05:28:38;;;;;;;14.50;6.30;;;16.70;99.70;;;17.08;63.25;95829.88;4998823;28;20465;-59
2023/10/05 05:31:13;;;;;;;13.13;6.67;;;16.70;99.70;;;17.11;63.19;95835.69;5006413;28;20492;-60
2023/10/05 05:33:43;;;;;;;18.80;7.50;;;16.70;99.70;;;17.13;62.65;95828.41;5001286;28;20547;-59
2023/10/05 05:36:13;;;;;;;22.40;6.93;;;16.80;99.60;;;17.16;62.88;95828.06;4997913;28;20478;-60
2023/10/05 05:38:47;;;;;;;15.40;7.63;;;16.80;99.50;;;17.20;63.10;95825.97;5001791;28;20453;-61
2023/10/05 05:41:16;;;;;;;13.63;7.10;;;16.90;99.60;;;17.27;62.96;95823.50;4999016;28;20508;-60
2023/10/05 05:43:44;;;;;;;17.97;6.17;;;16.90;99.60;;;17.35;62.93;95835.03;5001847;28;20466;-61
2023/10/05 05:46:13;;;;;;;14.47;8.50;;;17.00;99.60;;;17.46;62.88;95828.59;5001127;28;20543;-61
2023/10/05 05:48:42;;;;;;;17.40;6.00;;;17.00;99.50;;;17.61;62.19;95835.97;4999838;28;20536;-61
2023/10/05 05:51:14;;;;;;;9.27;5.57;;;17.20;99.40;;;17.80;61.77;95845.50;5000511;28;20478;-60
2023/10/05 05:53:44;;;;;;;13.90;5.57;;;17.30;99.30;;;18.02;61.54;95852.13;5002342;28;20935;-60
2023/10/05 05:56:16;;;;;;;9.87;5.17;;;17.50;98.90;;;18.26;60.48;95846.88;5003719;28;20914;-59
2023/10/05 05:58:47;;;;;;;14.83;5.60;;;17.80;98.50;;;18.51;60.04;95844.22;5006618;28;20453;-61
2023/10/05 06:01:19;;;;;;;20.57;4.67;;;18.00;98.10;;;18.75;59.34;95850.59;5003303;28;20560;-61
2023/10/05 06:03:48;;;;;;;10.43;4.97;;;18.20;97.60;;;18.99;59.22;95861.28;5007630;28;20997;-60
2023/10/05 06:06:16;;;;;;;13.07;5.47;;;18.50;97.10;;;19.24;58.11;95857.72;5001119;28;20485;-59
2023/10/05 06:08:44;;;;;;;8.90;5.43;;;18.70;96.50;;;19.46;57.94;95856.19;5005674;28;20605;-59
2023/10/05 06:11:13;;;;;;;16.70;5.27;;;18.90;96.10;;;19.71;57.20;95856.94;5000720;28;20477;-61
2023/10/05 06:13:42;;;;;;;17.53;5.63;;;19.10;95.70;;;19.99;56.42;95860.03;5001471;28;20576;-59
2023/10/05 06:16:09;;;;;;;8.67;4.20;;;19.40;95.30;;;20.28;56.08;95861.22;5003622;28;20535;-59
2023/10/05 06:18:37;;;;;;;32.93;5.20;;;19.70;94.70;;;20.57;55.46;95859.69;5002276;28;20462;-61
2023/10/05 06:21:05;;;;;;;27.93;5.27;;;20.00;94.20;;;20.87;54.66;95851.84;5003855;28;20493;-60
2023/10/05 06:23:33;;;;;;;11.30;3.70;;;20.30;93.60;;;21.16;54.15;95863.59;5003801;28;20556;-61
2023/10/05 06:26:02;;;;;;;22.13;4.60;;;20.60;92.80;;;21.43;53.57;95857.66;5006651;28;20524;-59
2023/10/05 06:28:32;;;;;;;15.40;4.73;;;20.80;92.10;;;21.72;52.75;95855.19;5001315;28;20573;-61
2023/10/05 06:31:01;;;;;;;9.50;4.20;;;21.10;91.40;;;22.04;52.37;95853.97;5003750;28;20823;-61
2023/10/05 06:33:28;;;;;;;14.67;4.73;;;21.40;90.70;;;22.39;51.59;95867.63;5001034;28;20458;-62
2023/10/05 06:35:55;;;;;;;8.57;4.10;;;21.80;90.20;;;22.72;50.91;95861.78;5000966;28;20471;-59
2023/10/05 06:38:22;;;;;;;13.30;4.43;;;22.00;88.30;;;23.05;49.77;95861.22;5004853;28;20969;-60
2023/10/05 06:40:50;;;;;;;19.57;4.90;;;22.40;87.10;;;23.39;49.56;95857.00;5003579;28;20591;-61
2023/10/05 06:43:21;;;;;;;9.67;4.30;;;22.70;84.80;;;23.70;47.97;95848.53;5005004;28;20457;-59
2023/10/05 06:45:48;;;;;;;18.03;4.00;;;23.10;83.10;;;24.06;47.82;95858.25;5003499;28;20517;-61
2023/10/05 06:48:15;;;;;;;12.10;4.40;;;23.40;82.00;;;24.44;47.56;95859.63;5000932;28;20864;-60
2023/10/05 06:50:43;;;;;;;9.83;4.77;;;23.70;80.50;;;24.82;46.22;95861.81;5003043;28;20466;-59
2023/10/05 06:53:11;;;;;;;9.70;4.07;;;24.10;78.80;;;25.21;45.99;95861.00;5008051;28;20491;-61
2023/10/05 06:55:39;;;;;;;16.50;4.13;;;24.40;77.40;;;25.61;45.10;95860.19;5000098;28;21068;-62
2023/10/05 06:58:07;;;;;;;5.17;3.60;;;24.90;76.30;;;26.02;44.01;95856.38;5004714;28;20460;-60
2023/10/05 07:00:35;;;;;;;19.80;4.43;;;25.20;74.30;;;26.37;43.73;95866.81;5004196;28;20493;-59
2023/10/05 07:03:06;;;;;;;15.60;4.43;;;25.60;72.60;;;26.77;43.85;95868.47;4999764;28;20500;-60
2023/10/05 07:05:33;;;;;;;13.10;5.27;;;26.00;72.30;;;27.19;43.41;95863.44;5004144;28;20543;-61
2023/10/05 07:08:01;;;;;;;18.13;5.77;;;26.40;71.10;;;27.62;42.25;95865.38;4998192;28;20454;-62
2023/10/05 07:10:28;;;;;;;12.53;4.43;;;26.80;69.60;;;28.05;41.61;95861.00;5005304;28;20536;-59
2023/10/05 07:12:56;;;;;;;11.87;4.17;;;27.30;68.60;;;28.51;41.80;95856.06;5002357;28;20482;-59
2023/10/05 07:15:23;;;;;;;14.30;4.70;;;27.70;67.30;;;28.90;39.91;95857.41;5004701;28;20476;-61
2023/10/05 07:17:52;;;;;;;12.33;4.27;;;28.10;64.90;;;29.26;39.48;95858.34;5001842;28;20469;-59
2023/10/05 07:20:19;;;;;;;12.87;3.73;;;28.50;63.80;;;29.57;39.26;95859.06;5002621;28;20452;-60
2023/10/05 07:22:48;;;;;;;15.60;4.70;;;28.90;61.40;;;29.86;38.06;95862.75;5000712;28;20294;-60
2023/10/05 07:25:17;;;;;;;12.03;4.80;;;29.30;60.50;;;30.20;38.00;95859.41;5004104;28;20273;-61
2023/10/05 07:27:44;;;;;;;10.50;4.63;;;29.70;59.90;;;30.56;37.96;95862.84;5000532;28;20207;-60
2023/10/05 07:30:12;;;;;;;12.00;4.10;;;30.10;58.80;;;30.89;36.95;95873.00;5000331;28;20206;-60
2023/10/05 07:32:39;;;;;;;6.95;4.03;;;30.40;57.60;;;31.20;36.31;95864.56;5003870;28;20205;-60
2023/10/05 07:35:09;;;;;;;5.95;4.15;;;30.80;56.50;;;31.45;36.14;95866.91;5001484;28;20592;-62
2023/10/05 07:37:37;;;;;;;10.27;4.45;;;31.10;55.60;;;31.67;33.86;95869.72;5004001;28;20230;-60
2023/10/05 07:40:07;;;;;;;15.90;4.15;;;31.40;53.10;;;31.85;35.13;95865.06;5002986;28;20206;-59
2023/10/05 07:42:37;;;;;;;11.55;4.70;;;31.60;53.70;;;32.03;34.81;95866.69;4999379;28;20229;-60
2023/10/05 07:45:07;;;;;;;10.77;4.65;;;31.80;53.50;;;32.23;34.16;95866.97;5002116;28;20823;-61
2023/10/05 07:47:34;;;;;;;20.25;4.80;;;31.90;52.70;;;32.42;34.17;95864.75;4998399;28;20302;-61
2023/10/05 07:50:04;;;;;;;12.50;4.93;;;32.10;52.30;;;32.53;33.82;95861.09;5003232;28;20281;-59
2023/10/05 07:52:33;;;;;;;15.50;5.28;;;32.20;51.90;;;32.61;33.28;95862.53;5002352;28;20340;-60
2023/10/05 07:55:00;;;;;;;12.05;5.13;;;32.20;51.40;;;32.66;32.75;95854.44;5004048;28;20222;-59
2023/10/05 07:57:29;;;;;;;18.83;5.38;;;32.20;50.50;;;32.76;33.26;95850.19;5006186;28;20222;-61
2023/10/05 07:59:56;;;;;;;10.18;5.32;;;32.30;51.00;;;32.87;32.76;95852.78;5003902;28;20637;-60
2023/10/05 08:02:23;;;;;;;17.58;5.03;;;32.40;50.60;;;32.95;32.71;95851.44;5002748;28;20233;-59
2023/10/05 08:04:51;;;;;;;18.08;6.18;;;32.50;50.20;;;33.07;32.78;95845.84;5000494;28;20207;-61
2023/10/05 08:07:18;;;;;;;21.45;6.50;;;32.60;49.80;;;33.17;32.54;95848.69;5002645;28;20765;-60
2023/10/05 08:09:48;;;;;;;6.85;5.78;;;32.70;49.50;;;33.24;32.23;95848.47;5002025;28;20233;-61
2023/10/05 08:12:16;;;;;;;19.58;5.38;;;32.80;49.10;;;33.33;31.84;95840.66;5002072;28;20263;-62
2023/10/05 08:14:44;;;;;;;12.48;5.43;;;32.80;48.80;;;33.42;31.91;95844.53;4998940;28;20199;-60
2023/10/05 08:17:12;;;;;;;6.55;5.00;;;32.80;48.60;;;33.40;31.78;95846.69;4998205;28;20273;-61
2023/10/05 08:19:39;;;;;;;14.52;5.70;;;32.80;48.30;;;33.37;31.01;95841.75;5002382;28;20229;-58
2023/10/05 08:22:06;;;;;;;10.35;5.75;;;32.80;47.00;;;33.20;30.76;95845.47;4999079;28;20277;-62
2023/10/05 08:24:34;;;;;;;11.75;5.20;;;32.70;46.80;;;33.03;31.31;95847.44;5002617;28;20203;-62
2023/10/05 08:27:03;;;;;;;8.98;5.72;;;32.40;47.50;;;32.96;31.47;95839.47;5002068;28;20808;-64
2023/10/05 08:29:32;;;;;;;28.52;5.63;;;32.30;47.80;;;32.97;31.42;95840.28;5003060;28;20202;-63
2023/10/05 08:32:00;;;;;;;26.20;6.65;;;32.30;48.10;;;32.98;31.14;95836.50;5004388;28;20225;-62
2023/10/05 08:34:32;;;;;;;7.22;5.65;;;32.30;47.90;;;32.98;31.09;95839.22;5006171;28;20237;-61
2023/10/05 08:37:01;;;;;;;13.80;6.22;;;32.30;48.10;;;33.06;31.21;95833.28;5002584;28;20774;-61
2023/10/05 08:39:34;;;;;;;8.93;6.22;;;32.40;48.40;;;33.19;31.60;95830.16;5001456;28;20696;-61
2023/10/05 08:42:06;;;;;;;14.45;6.03;;;32.50;48.30;;;33.31;31.71;95840.91;5004241;28;20703;-61
2023/10/05 08:44:38;;;;;;;13.45;6.13;;;32.50;48.20;;;33.41;31.12;95827.34;5000763;28;20311;-60
2023/10/05 08:47:06;;;;;;;14.43;6.50;;;32.70;47.80;;;33.48;31.32;95829.03;5000134;28;20745;-61
2023/10/05 08:49:34;;;;;;;12.98;6.20;;;32.70;47.90;;;33.54;30.93;95831.53;5001816;28;20605;-62
2023/10/05 08:52:07;;;;;;;16.77;5.72;;;32.70;47.70;;;33.56;31.09;95828.56;4998553;28;20741;-62
2023/10/05 08:54:35;;;;;;;12.23;5.65;;;32.80;46.90;;;33.62;31.08;95832.13;5001655;28;20198;-61
2023/10/05 08:57:09;;;;;;;20.77;6.00;;;32.80;47.50;;;33.66;30.75;95825.06;5002613;28;20270;-61
2023/10/05 08:59:37;;;;;;;12.57;6.38;;;32.90;47.10;;;33.68;30.92;95823.72;5006664;28;20218;-61
2023/10/05 09:02:07;;;;;;;19.88;7.03;;;33.00;47.50;;;33.73;30.76;95829.22;5007238;28;20230;-62
2023/10/05 09:04:44;;;;;;;15.20;6.80;;;33.00;47.50;;;33.78;31.28;95816.72;5001269;28;20687;-62
2023/10/05 09:07:17;;;;;;;18.02;6.93;;;33.10;47.30;;;33.80;30.27;95817.25;4998816;28;20523;-60
2023/10/05 09:09:54;;;;;;;12.80;7.05;;;33.10;47.10;;;33.83;30.66;95823.00;5002285;28;20209;-61
2023/10/05 09:12:33;;;;;;;13.95;6.15;;;33.10;47.10;;;33.88;30.99;95816.75;4996208;28;20710;-62
2023/10/05 09:15:19;;;;;;;20.15;7.40;;;33.10;47.10;;;33.94;30.62;95807.50;4999639;28;20202;-61
2023/10/05 09:18:06;;;;;;;22.85;6.90;;;33.20;47.10;;;33.85;30.67;95798.16;5005173;28;20648;-62
2023/10/05 09:20:36;;;;;;;16.77;6.50;;;33.20;46.70;;;33.82;30.95;95802.28;5000856;28;20314;-61
2023/10/05 09:23:05;;;;;;;13.75;7.40;;;33.10;47.00;;;33.80;31.13;95796.25;5004994;28;20226;-61
2023/10/05 09:25:34;;;;;;;13.90;7.10;;;33.10;47.10;;;33.61;30.88;95789.56;5000686;28;20739;-60
2023/10/05 09:28:12;;;;;;;22.98;7.03;;;33.00;46.50;;;33.23;30.17;95787.69;5002815;28;20782;-61
2023/10/05 09:30:55;;;;;;;15.43;6.32;;;32.70;46.20;;;32.95;31.30;95788.75;5000325;28;20782;-61
2023/10/05 09:33:25;;;;;;;14.05;6.88;;;32.30;46.60;;;32.79;31.73;95790.53;5004846;28;20186;-60
2023/10/05 09:35:52;;;;;;;15.30;6.63;;;32.20;47.40;;;32.70;31.33;95790.19;5002755;28;20229;-61
2023/10/05 09:38:21;;;;;;;18.17;6.80;;;32.10;47.50;;;32.56;31.47;95782.66;5001406;28;20206;-65
2023/10/05 09:40:49;;;;;;;14.73;7.47;;;31.90;47.70;;;32.52;31.72;95780.44;5002047;28;20249;-61
2023/10/05 09:43:21;;;;;;;18.95;6.65;;;31.80;48.20;;;32.60;31.93;95784.63;5002235;28;20191;-62
2023/10/05 09:45:52;;;;;;;22.23;7.82;;;31.90;48.50;;;32.73;31.53;95780.66;5001942;28;20226;-58
2023/10/05 09:48:20;;;;;;;13.50;6.57;;;31.90;48.20;;;32.81;31.80;95780.22;5001088;28;20308;-59
2023/10/05 09:50:48;;;;;;;20.80;7.53;;;32.10;48.30;;;32.84;31.47;95774.25;4997570;28;20230;-61
2023/10/05 09:53:17;;;;;;;14.65;7.32;;;32.10;48.00;;;32.60;31.55;95775.63;4997606;28;20285;-61
2023/10/05 09:55:46;;;;;;;30.75;8.80;;;32.00;47.60;;;32.33;32.00;95774.53;4996434;28;20249;-60
2023/10/05 09:58:13;;;;;;;12.35;7.63;;;31.80;47.80;;;31.94;32.00;95762.88;4997963;28;20214;-61
2023/10/05 10:00:55;;;;;;;20.50;7.40;;;31.40;47.80;;;31.78;32.58;95761.88;4998834;28;20230;-62
2023/10/05 10:03:22;;;;;;;21.35;7.30;;;31.20;48.60;;;31.78;32.45;95757.25;4997633;28;20585;-60
2023/10/05 10:05:53;;;;;;;20.00;6.28;;;31.10;49.00;;;31.88;32.76;95755.72;5000492;28;20222;-61
2023/10/05 10:08:23;;;;;;;13.00;6.40;;;31.20;49.10;;;31.97;32.65;95754.22;4997132;28;20199;-60
2023/10/05 10:11:01;;;;;;;19.10;7.50;;;31.20;48.90;;;32.05;32.67;95742.88;4996455;28;20235;-61
2023/10/05 10:13:32;;;;;;;15.02;7.40;;;31.30;49.10;;;32.13;32.46;95747.91;4999387;28;20264;-60
2023/10/05 10:16:03;;;;;;;14.75;6.85;;;31.40;49.10;;;32.09;32.37;95744.03;4998936;28;20659;-60
2023/10/05 10:18:37;;;;;;;15.88;7.05;;;31.40;48.60;;;32.07;32.25;95738.00;4998452;28;20289;-59
2023/10/05 10:21:11;;;;;;;11.63;7.25;;;31.40;48.30;;;31.93;32.58;95734.00;5000196;28;20714;-61
2023/10/05 10:23:39;;;;;;;16.77;6.65;;;31.30;48.80;;;31.88;32.44;95732.06;5000560;28;20291;-59
2023/10/05 10:26:07;;;;;;;20.00;8.07;;;31.20;49.10;;;31.83;32.86;95729.28;5000370;28;20701;-59